createdAt,value
2023-03-20T00:02:08.359Z,0.63
2023-03-20T00:04:35.280Z,0.85
2023-03-20T00:07:03.740Z,0.75
2023-03-20T00:09:31.480Z,0.90
2023-03-20T00:11:58.346Z,0.60
2023-03-20T00:14:25.283Z,0.82
2023-03-20T00:16:52.414Z,0.57
2023-03-20T00:19:20.039Z,0.65
2023-03-20T00:21:47.992Z,0.88
2023-03-20T00:24:15.419Z,0.85
2023-03-20T00:26:42.961Z,0.70
2023-03-20T00:29:15.170Z,0.75
2023-03-20T00:31:42.233Z,0.70
2023-03-20T00:34:17.365Z,0.80
2023-03-20T00:36:46.450Z,0.60
2023-03-20T00:39:13.264Z,0.95
2023-03-20T00:41:41.643Z,0.70
2023-03-20T00:44:24.635Z,0.50
2023-03-20T00:46:59.423Z,0.93
2023-03-20T00:49:34.854Z,0.68
2023-03-20T00:52:02.417Z,0.90
2023-03-20T00:54:29.414Z,0.98
2023-03-20T00:56:59.412Z,0.95
2023-03-20T00:59:31.490Z,0.73
2023-03-20T01:01:59.289Z,1.05
2023-03-20T01:04:35.681Z,1.02
2023-03-20T01:07:02.650Z,1.00
2023-03-20T01:09:29.491Z,0.80
2023-03-20T01:11:56.309Z,0.90
2023-03-20T01:14:23.151Z,0.82
2023-03-20T01:16:50.063Z,1.10
2023-03-20T01:19:17.082Z,1.10
2023-03-20T01:21:44.047Z,1.17
2023-03-20T01:24:11.033Z,0.88
2023-03-20T01:26:39.451Z,1.23
2023-03-20T01:29:32.761Z,1.08
2023-03-20T01:31:59.654Z,1.10
2023-03-20T01:34:27.876Z,1.15
2023-03-20T01:36:57.621Z,1.10
2023-03-20T01:39:35.124Z,1.65
2023-03-20T01:42:02.960Z,1.35
2023-03-20T01:44:32.294Z,1.40
2023-03-20T01:47:00.094Z,1.38
2023-03-20T01:49:28.403Z,1.50
2023-03-20T01:51:58.738Z,1.40
2023-03-20T01:54:34.577Z,1.02
2023-03-20T01:57:13.625Z,1.38
2023-03-20T01:59:43.435Z,1.00
2023-03-20T02:02:10.781Z,1.63
2023-03-20T02:04:40.281Z,1.33
2023-03-20T02:07:10.402Z,1.33
2023-03-20T02:09:42.967Z,1.50
2023-03-20T02:12:15.726Z,1.58
2023-03-20T02:14:42.992Z,1.75
2023-03-20T02:17:24.674Z,1.45
2023-03-20T02:20:34.215Z,1.50
2023-03-20T02:23:30.180Z,1.55
2023-03-20T02:26:23.029Z,1.20
2023-03-20T02:29:24.008Z,1.30
2023-03-20T02:32:18.630Z,1.63
2023-03-20T02:35:16.184Z,1.70
2023-03-20T02:37:58.142Z,1.88
2023-03-20T02:40:39.908Z,1.60
2023-03-20T02:43:36.459Z,1.65
2023-03-20T02:46:09.469Z,1.73
2023-03-20T02:49:17.971Z,1.90
2023-03-20T02:51:56.331Z,1.90
2023-03-20T02:54:49.549Z,1.98
2023-03-20T02:57:47.615Z,1.40
2023-03-20T03:00:37.446Z,2.08
2023-03-20T03:03:07.895Z,2.03
2023-03-20T03:05:40.928Z,1.80
2023-03-20T03:08:08.629Z,1.60
2023-03-20T03:10:38.333Z,1.70
2023-03-20T03:13:07.830Z,1.75
2023-03-20T03:15:36.458Z,1.70
2023-03-20T03:18:05.541Z,1.77
2023-03-20T03:20:37.380Z,3.80
2023-03-20T03:23:04.554Z,3.80
2023-03-20T03:25:34.655Z,3.13
2023-03-20T03:28:21.674Z,4.50
2023-03-20T03:30:49.968Z,3.25
2023-03-20T03:33:22.399Z,3.10
2023-03-20T03:35:49.904Z,3.00
2023-03-20T03:38:30.382Z,2.90
2023-03-20T03:41:18.117Z,3.08
2023-03-20T03:43:48.573Z,4.70
2023-03-20T03:46:37.459Z,4.38
2023-03-20T03:49:04.538Z,4.40
2023-03-20T03:51:33.195Z,4.30
2023-03-20T03:54:12.080Z,4.30
2023-03-20T03:56:40.362Z,4.93
2023-03-20T03:59:11.470Z,5.00
2023-03-20T04:01:39.311Z,4.53
2023-03-20T04:04:07.561Z,5.53
2023-03-20T04:06:34.545Z,4.85
2023-03-20T04:09:01.494Z,4.32
2023-03-20T04:11:30.962Z,4.88
2023-03-20T04:13:57.819Z,4.28
2023-03-20T04:16:25.005Z,4.53
2023-03-20T04:18:52.148Z,4.50
2023-03-20T04:21:19.316Z,4.78
2023-03-20T04:23:46.838Z,4.40
2023-03-20T04:26:14.349Z,3.95
2023-03-20T04:28:41.341Z,4.45
2023-03-20T04:31:20.825Z,4.03
2023-03-20T04:34:06.433Z,4.10
2023-03-20T04:36:33.251Z,4.68
2023-03-20T04:39:00.507Z,4.45
2023-03-20T04:41:27.312Z,4.60
2023-03-20T04:43:57.089Z,4.72
2023-03-20T04:46:24.602Z,4.45
2023-03-20T04:48:51.666Z,4.95
2023-03-20T04:51:19.248Z,4.50
2023-03-20T04:53:51.021Z,3.95
2023-03-20T04:56:18.260Z,4.70
2023-03-20T04:58:46.241Z,4.20
2023-03-20T05:01:14.222Z,4.18
2023-03-20T05:03:41.454Z,4.13
2023-03-20T05:06:09.074Z,4.03
2023-03-20T05:08:37.129Z,4.10
2023-03-20T05:11:06.661Z,4.15
2023-03-20T05:14:08.539Z,4.28
2023-03-20T05:16:56.361Z,4.10
2023-03-20T05:19:52.924Z,4.40
2023-03-20T05:22:38.517Z,4.63
2023-03-20T05:25:13.277Z,4.80
2023-03-20T05:27:58.804Z,5.95
2023-03-20T05:30:57.749Z,5.00
2023-03-20T05:33:27.499Z,4.85
2023-03-20T05:36:07.536Z,4.75
2023-03-20T05:39:04.238Z,5.53
2023-03-20T05:41:45.752Z,5.65
2023-03-20T05:44:48.438Z,5.25
2023-03-20T05:47:38.107Z,5.20
2023-03-20T05:50:23.354Z,5.35
2023-03-20T05:53:02.743Z,5.70
2023-03-20T05:58:27.706Z,5.20
2023-03-20T06:00:54.538Z,5.40
2023-03-20T06:03:56.893Z,5.05
2023-03-20T06:06:46.987Z,5.07
2023-03-20T06:09:13.923Z,4.80
2023-03-20T06:11:40.886Z,5.28
2023-03-20T06:14:07.958Z,4.45
2023-03-20T06:16:40.720Z,4.70
2023-03-20T06:19:07.625Z,4.93
2023-03-20T06:21:34.615Z,5.63
2023-03-20T06:24:02.030Z,5.20
2023-03-20T06:26:29.122Z,4.38
2023-03-20T06:29:06.321Z,5.05
2023-03-20T06:31:34.138Z,5.30
2023-03-20T06:34:03.475Z,5.65
2023-03-20T06:36:32.755Z,5.70
2023-03-20T06:39:05.830Z,5.90
2023-03-20T06:41:34.957Z,5.70
2023-03-20T06:44:05.827Z,6.00
2023-03-20T06:46:52.788Z,4.95
2023-03-20T06:49:19.727Z,4.63
2023-03-20T06:51:48.267Z,4.70
2023-03-20T06:54:23.223Z,4.75
2023-03-20T06:56:51.476Z,5.32
2023-03-20T06:59:18.472Z,4.93
2023-03-20T07:01:45.603Z,5.13
2023-03-20T07:04:13.192Z,5.28
2023-03-20T07:06:47.183Z,3.80
2023-03-20T07:09:14.307Z,4.97
2023-03-20T07:11:41.665Z,5.70
2023-03-20T07:14:09.043Z,5.38
2023-03-20T07:16:50.571Z,5.30
2023-03-20T07:19:18.697Z,6.25
2023-03-20T07:21:49.358Z,6.00
2023-03-20T07:24:17.961Z,5.05
2023-03-20T07:26:44.807Z,5.07
2023-03-20T07:29:11.805Z,5.05
2023-03-20T07:31:39.999Z,4.32
2023-03-20T07:34:23.097Z,5.20
2023-03-20T07:36:52.918Z,5.07
2023-03-20T07:39:21.561Z,4.75
2023-03-20T07:42:02.798Z,3.95
2023-03-20T07:44:42.611Z,3.85
2023-03-20T07:47:10.781Z,4.28
2023-03-20T07:49:37.705Z,4.18
2023-03-20T07:52:04.601Z,4.15
2023-03-20T07:54:31.892Z,3.55
2023-03-20T07:56:58.685Z,3.20
2023-03-20T07:59:26.095Z,3.30
2023-03-20T08:01:52.912Z,3.60
2023-03-20T08:04:22.624Z,3.85
2023-03-20T08:06:50.346Z,3.70
2023-03-20T08:09:17.824Z,3.25
2023-03-20T08:11:47.478Z,3.38
2023-03-20T08:14:14.373Z,2.90
2023-03-20T08:16:41.517Z,2.58
2023-03-20T08:19:09.952Z,3.15
2023-03-20T08:21:36.940Z,2.47
2023-03-20T08:24:03.878Z,2.80
2023-03-20T08:26:31.155Z,3.13
2023-03-20T08:28:59.275Z,2.67
2023-03-20T08:31:26.096Z,2.88
2023-03-20T08:33:52.913Z,2.58
2023-03-20T08:36:20.878Z,2.97
2023-03-20T08:38:48.702Z,2.65
2023-03-20T08:41:16.040Z,2.60
2023-03-20T08:43:42.911Z,2.92
2023-03-20T08:46:09.751Z,3.08
2023-03-20T08:48:36.703Z,2.17
2023-03-20T08:51:03.999Z,2.70
2023-03-20T08:53:31.050Z,3.25
2023-03-20T08:55:57.871Z,3.08
2023-03-20T08:58:24.770Z,3.28
2023-03-20T09:00:51.630Z,3.60
2023-03-20T09:03:19.902Z,2.80
2023-03-20T09:05:51.251Z,2.80
2023-03-20T09:08:18.263Z,2.90
2023-03-20T09:10:47.477Z,2.58
2023-03-20T09:13:26.829Z,2.45
2023-03-20T09:15:55.128Z,2.38
2023-03-20T09:18:22.062Z,2.88
2023-03-20T09:20:49.242Z,2.65
2023-03-20T09:23:16.246Z,2.40
2023-03-20T09:25:43.054Z,2.33
2023-03-20T09:28:09.894Z,2.60
2023-03-20T09:30:37.100Z,2.92
2023-03-20T09:33:04.201Z,2.83
2023-03-20T09:35:31.397Z,3.03
2023-03-20T09:37:58.393Z,3.72
2023-03-20T09:40:30.849Z,2.92
2023-03-20T09:43:21.358Z,2.63
2023-03-20T09:46:06.203Z,3.28
2023-03-20T09:48:35.264Z,2.28
2023-03-20T09:51:13.153Z,2.20
2023-03-20T09:53:47.696Z,2.00
2023-03-20T09:56:26.561Z,1.80
2023-03-20T09:59:01.464Z,2.00
2023-03-20T10:01:31.797Z,1.60
2023-03-20T10:04:09.467Z,1.48
2023-03-20T10:06:36.283Z,1.48
2023-03-20T10:09:07.307Z,1.20
2023-03-20T10:11:34.084Z,1.35
2023-03-20T10:14:11.318Z,1.63
2023-03-20T10:17:03.744Z,1.15
2023-03-20T10:19:32.154Z,0.90
2023-03-20T10:22:11.809Z,1.00
2023-03-20T10:24:44.323Z,1.20
2023-03-20T10:27:34.126Z,1.20
2023-03-20T10:30:23.272Z,1.15
2023-03-20T10:33:02.148Z,1.05
2023-03-20T10:35:50.780Z,0.82
2023-03-20T10:38:54.059Z,1.13
2023-03-20T10:41:23.341Z,0.60
2023-03-20T10:43:51.526Z,0.75
2023-03-20T10:46:27.600Z,1.40
2023-03-20T10:48:58.992Z,1.10
2023-03-20T10:51:48.037Z,1.00
2023-03-20T10:54:35.392Z,0.75
2023-03-20T10:57:03.841Z,0.80
2023-03-20T10:59:42.511Z,0.50
2023-03-20T11:02:13.461Z,0.63
2023-03-20T11:04:40.368Z,0.45
2023-03-20T11:07:22.158Z,1.23
2023-03-20T11:10:04.746Z,1.33
2023-03-20T11:12:36.272Z,0.70
2023-03-20T11:15:06.069Z,0.57
2023-03-20T11:17:32.908Z,0.60
2023-03-20T11:20:04.317Z,0.60
2023-03-20T11:22:31.352Z,1.15
2023-03-20T11:25:01.587Z,0.50
2023-03-20T11:27:29.840Z,0.50
2023-03-20T11:29:57.106Z,1.27
2023-03-20T11:32:36.620Z,0.82
2023-03-20T11:35:28.425Z,0.63
2023-03-20T11:37:56.426Z,0.88
2023-03-20T11:40:39.218Z,1.33
2023-03-20T11:43:14.179Z,1.47
2023-03-20T11:45:45.909Z,1.00
2023-03-20T11:48:23.897Z,1.13
2023-03-20T11:51:07.304Z,1.80
2023-03-20T11:53:36.063Z,1.55
2023-03-20T11:56:08.904Z,1.08
2023-03-20T11:58:37.417Z,1.13
2023-03-20T12:01:04.625Z,1.02
2023-03-20T12:03:45.559Z,0.90
2023-03-20T12:06:19.790Z,1.13
2023-03-20T12:08:55.776Z,1.30
2023-03-20T12:11:43.732Z,1.00
2023-03-20T12:14:37.461Z,1.02
2023-03-20T12:17:29.221Z,1.00
2023-03-20T12:19:58.154Z,0.85
2023-03-20T12:22:31.060Z,0.88
2023-03-20T12:25:18.918Z,0.65
2023-03-20T12:27:56.149Z,0.93
2023-03-20T12:30:57.720Z,1.10
2023-03-20T12:33:46.149Z,0.60
2023-03-20T12:36:17.751Z,0.73
2023-03-20T12:38:44.970Z,1.00
2023-03-20T12:41:32.911Z,0.60
2023-03-20T12:44:23.701Z,0.50
2023-03-20T12:47:21.716Z,0.63
2023-03-20T12:50:07.135Z,0.88
2023-03-20T12:53:03.576Z,0.68
2023-03-20T12:55:51.004Z,1.10
2023-03-20T12:58:30.651Z,0.70
2023-03-20T13:01:04.139Z,0.90
2023-03-20T13:06:36.669Z,0.65
2023-03-20T13:09:26.645Z,0.60
2023-03-20T13:12:47.531Z,0.80
2023-03-20T13:15:23.081Z,0.60
2023-03-20T13:17:56.777Z,0.50
2023-03-20T13:20:40.440Z,0.60
2023-03-20T13:25:53.699Z,0.50
2023-03-20T13:28:44.771Z,1.17
2023-03-20T13:31:26.852Z,0.60
2023-03-20T13:33:53.747Z,0.88
2023-03-20T13:36:42.448Z,0.70
2023-03-20T13:39:32.232Z,0.60
2023-03-20T13:41:59.560Z,0.70
2023-03-20T13:44:28.123Z,0.98
2023-03-20T13:47:10.736Z,0.50
2023-03-20T13:49:43.846Z,0.70
2023-03-20T13:52:31.846Z,0.63
2023-03-20T13:55:17.445Z,0.75
2023-03-20T13:57:49.516Z,0.80
2023-03-20T14:00:31.432Z,3.08
2023-03-20T14:03:28.598Z,1.30
2023-03-20T14:05:55.514Z,1.10
2023-03-20T14:08:32.698Z,1.20
2023-03-20T14:11:38.311Z,1.10
2023-03-20T14:14:24.524Z,0.90
2023-03-20T14:17:07.850Z,0.60
2023-03-20T14:19:34.734Z,1.10
2023-03-20T14:22:01.589Z,0.80
2023-03-20T14:24:28.458Z,0.70
2023-03-20T14:26:57.051Z,0.80
2023-03-20T14:29:29.954Z,0.73
2023-03-20T14:32:19.799Z,0.90
2023-03-20T14:34:53.617Z,0.70
2023-03-20T14:37:45.498Z,0.60
2023-03-20T14:40:14.486Z,0.70
2023-03-20T14:42:50.645Z,0.65
2023-03-20T14:45:32.891Z,0.65
2023-03-20T14:48:29.752Z,0.80
2023-03-20T14:51:08.428Z,0.73
2023-03-20T14:53:35.453Z,0.80
2023-03-20T14:56:10.235Z,0.73
2023-03-20T14:58:43.480Z,0.60
2023-03-20T15:01:19.847Z,0.70
2023-03-20T15:03:54.054Z,0.50
2023-03-20T15:06:21.878Z,0.68
2023-03-20T15:08:53.630Z,0.70
2023-03-20T15:11:20.511Z,0.85
2023-03-20T15:13:47.557Z,0.70
2023-03-20T15:16:14.973Z,0.93
2023-03-20T15:18:52.015Z,0.90
2023-03-20T15:21:38.434Z,0.60
2023-03-20T15:24:05.561Z,1.20
2023-03-20T15:26:34.878Z,0.70
2023-03-20T15:29:07.057Z,0.65
2023-03-20T15:31:35.434Z,1.00
2023-03-20T15:34:04.677Z,0.80
2023-03-20T15:36:32.880Z,0.80
2023-03-20T15:39:14.377Z,1.00
2023-03-20T15:41:47.377Z,1.48
2023-03-20T15:44:28.011Z,0.98
2023-03-20T15:47:02.235Z,1.00
2023-03-20T15:49:30.966Z,0.63
2023-03-20T15:52:00.118Z,0.50
2023-03-20T15:54:26.998Z,0.70
2023-03-20T15:56:55.930Z,0.90
2023-03-20T15:59:25.186Z,0.93
2023-03-20T16:01:54.057Z,0.77
2023-03-20T16:04:21.134Z,0.80
2023-03-20T16:06:51.947Z,1.10
2023-03-20T16:09:18.798Z,0.70
2023-03-20T16:11:54.962Z,0.70
2023-03-20T16:14:23.774Z,0.60
2023-03-20T16:16:51.537Z,0.80
2023-03-20T16:19:18.535Z,1.13
2023-03-20T16:21:49.114Z,0.95
2023-03-20T16:24:37.235Z,0.80
2023-03-20T16:27:10.417Z,0.70
2023-03-20T16:29:37.546Z,0.70
2023-03-20T16:32:09.826Z,0.50
2023-03-20T16:34:37.366Z,0.60
2023-03-20T16:37:20.675Z,0.80
2023-03-20T16:39:47.504Z,0.77
2023-03-20T16:42:24.872Z,0.60
2023-03-20T16:44:55.898Z,0.50
2023-03-20T16:47:36.463Z,0.77
2023-03-20T16:50:17.547Z,0.55
2023-03-20T16:52:49.664Z,0.85
2023-03-20T16:55:31.705Z,4.90
2023-03-20T16:58:00.448Z,0.70
2023-03-20T17:00:31.843Z,0.68
2023-03-20T17:03:40.045Z,0.50
2023-03-20T17:06:11.011Z,0.40
2023-03-20T17:08:41.574Z,0.70
2023-03-20T17:11:17.696Z,0.73
2023-03-20T17:13:44.584Z,0.75
2023-03-20T17:16:18.058Z,0.50
2023-03-20T17:18:46.314Z,0.60
2023-03-20T17:21:13.711Z,0.57
2023-03-20T17:23:40.864Z,0.52
2023-03-20T17:26:11.454Z,7.68
2023-03-20T17:28:38.332Z,0.90
2023-03-20T17:31:06.429Z,0.82
2023-03-20T17:33:33.766Z,0.57
2023-03-20T17:36:00.923Z,0.70
2023-03-20T17:38:27.782Z,0.70
2023-03-20T17:40:54.639Z,0.60
2023-03-20T17:43:21.647Z,0.57
2023-03-20T17:45:49.335Z,0.73
2023-03-20T17:48:18.321Z,0.77
2023-03-20T17:50:45.562Z,0.50
2023-03-20T17:53:17.630Z,0.38
2023-03-20T17:55:44.580Z,0.80
2023-03-20T17:58:20.338Z,2.90
2023-03-20T18:00:47.422Z,1.23
2023-03-20T18:03:15.384Z,0.85
2023-03-20T18:05:42.482Z,0.60
2023-03-20T18:08:12.755Z,0.82
2023-03-20T18:10:40.387Z,0.60
2023-03-20T18:13:07.452Z,0.60
2023-03-20T18:15:34.402Z,1.08
2023-03-20T18:18:01.234Z,0.80
2023-03-20T18:20:32.612Z,0.70
2023-03-20T18:22:59.463Z,0.75
2023-03-20T18:25:26.358Z,0.73
2023-03-20T18:27:54.119Z,0.70
2023-03-20T18:30:23.256Z,0.82
2023-03-20T18:32:50.298Z,0.60
2023-03-20T18:35:17.274Z,0.80
2023-03-20T18:37:44.105Z,0.73
2023-03-20T18:40:22.439Z,0.75
2023-03-20T18:42:49.236Z,0.63
2023-03-20T18:45:16.993Z,0.95
2023-03-20T18:47:43.869Z,0.90
2023-03-20T18:50:23.932Z,0.70
2023-03-20T18:52:51.842Z,0.45
2023-03-20T18:55:18.860Z,0.70
2023-03-20T18:57:46.069Z,0.98
2023-03-20T19:00:21.917Z,0.73
2023-03-20T19:02:49.857Z,0.85
2023-03-20T19:05:17.227Z,1.13
2023-03-20T19:07:44.093Z,1.08
2023-03-20T19:10:27.722Z,0.60
2023-03-20T19:12:54.689Z,0.90
2023-03-20T19:15:28.894Z,1.10
2023-03-20T19:17:55.879Z,1.00
2023-03-20T19:20:40.555Z,0.80
2023-03-20T19:23:09.109Z,1.50
2023-03-20T19:25:36.251Z,0.70
2023-03-20T19:28:03.313Z,0.50
2023-03-20T19:30:37.373Z,0.60
2023-03-20T19:33:06.256Z,0.43
2023-03-20T19:36:01.411Z,0.82
2023-03-20T19:38:21.348Z,0.70
2023-03-20T19:40:53.201Z,0.70
2023-03-20T19:43:21.735Z,0.80
2023-03-20T19:45:51.751Z,0.82
2023-03-20T19:48:23.226Z,0.88
2023-03-20T19:50:51.140Z,0.57
2023-03-20T19:53:21.084Z,1.02
2023-03-20T19:55:48.041Z,1.00
2023-03-20T19:58:14.923Z,1.10
2023-03-20T20:01:12.156Z,1.10
2023-03-20T20:03:29.324Z,1.08
2023-03-20T20:05:56.420Z,0.70
2023-03-20T20:08:38.359Z,0.88
2023-03-20T20:11:12.963Z,1.00
2023-03-20T20:13:57.183Z,0.90
2023-03-20T20:16:26.980Z,0.95
2023-03-20T20:18:53.805Z,1.02
2023-03-20T20:22:10.095Z,3.42
2023-03-20T20:24:07.565Z,3.22
2023-03-20T20:26:39.039Z,0.82
2023-03-20T20:29:08.384Z,1.02
2023-03-20T20:31:35.217Z,1.00
2023-03-20T20:35:03.767Z,1.02
2023-03-20T20:37:47.419Z,1.02
2023-03-20T20:39:35.777Z,1.02
2023-03-20T20:42:02.960Z,1.08
2023-03-20T20:44:29.785Z,1.13
2023-03-20T20:46:56.751Z,1.13
2023-03-20T20:49:23.654Z,1.08
2023-03-20T20:51:50.495Z,1.58
2023-03-20T20:54:17.363Z,1.20
2023-03-20T20:56:44.319Z,1.20
2023-03-20T20:59:11.406Z,1.20
2023-03-20T21:01:38.378Z,1.52
2023-03-20T21:04:05.300Z,1.20
2023-03-20T21:06:58.217Z,1.40
2023-03-20T21:09:19.442Z,0.95
2023-03-20T21:11:46.783Z,1.30
2023-03-20T21:14:14.246Z,0.90
2023-03-20T21:16:41.321Z,1.08
2023-03-20T21:19:08.230Z,1.27
2023-03-20T21:21:35.760Z,1.30
2023-03-20T21:24:02.945Z,1.20
2023-03-20T21:26:29.760Z,1.23
2023-03-20T21:28:56.550Z,1.30
2023-03-20T21:31:30.860Z,1.52
2023-03-20T21:33:57.973Z,1.20
2023-03-20T21:36:25.065Z,1.40
2023-03-20T21:39:08.935Z,1.40
2023-03-20T21:41:37.927Z,1.35
2023-03-20T21:44:05.894Z,1.50
2023-03-20T21:55:37.024Z,1.30
2023-03-20T22:03:34.876Z,1.65
2023-03-20T22:15:20.172Z,1.50
2023-03-20T22:23:37.110Z,1.50
2023-03-20T22:42:57.111Z,1.30
2023-03-20T22:45:09.387Z,1.30
2023-03-20T22:47:36.674Z,1.48
2023-03-20T22:50:03.898Z,1.50
2023-03-20T22:52:49.422Z,1.33
2023-03-20T22:55:17.312Z,1.63
2023-03-20T22:57:56.244Z,1.33
2023-03-20T23:00:31.482Z,1.40
2023-03-20T23:03:12.913Z,1.52
2023-03-20T23:05:42.528Z,1.30
2023-03-20T23:08:09.575Z,1.45
2023-03-20T23:10:38.126Z,1.65
2023-03-20T23:13:05.106Z,1.42
2023-03-20T23:15:31.977Z,1.52
2023-03-20T23:17:58.858Z,1.20
2023-03-20T23:20:25.708Z,1.50
2023-03-20T23:22:52.681Z,1.55
2023-03-20T23:25:36.065Z,1.27
2023-03-20T23:28:06.151Z,1.27
2023-03-20T23:30:43.411Z,1.20
2023-03-20T23:33:12.000Z,1.10
2023-03-20T23:35:38.853Z,1.20
2023-03-20T23:38:05.745Z,1.25
2023-03-20T23:40:32.551Z,1.10
2023-03-20T23:42:59.312Z,1.05
2023-03-20T23:45:26.224Z,1.17
2023-03-20T23:47:53.086Z,1.42
2023-03-20T23:50:34.035Z,1.60
2023-03-20T23:55:47.479Z,1.15
2023-03-20T23:58:14.480Z,1.30
